sensor_id;sensor_type;location;lat;lon;timestamp;P1;durP1;ratioP1;P2;durP2;ratioP2
78989;SDS011;68390;52.130;21.218;2023-03-05T00:02:17;11.05;;;4.22;;
78989;SDS011;68390;52.130;21.218;2023-03-05T00:04:42;9.73;;;4.10;;
78989;SDS011;68390;52.130;21.218;2023-03-05T00:07:08;10.05;;;4.20;;
78989;SDS011;68390;52.130;21.218;2023-03-05T00:09:36;12.95;;;4.90;;
78989;SDS011;68390;52.130;21.218;2023-03-05T00:12:02;10.63;;;4.72;;
78989;SDS011;68390;52.130;21.218;2023-03-05T00:14:27;9.88;;;4.30;;
78989;SDS011;68390;52.130;21.218;2023-03-05T00:16:53;9.88;;;4.30;;
78989;SDS011;68390;52.130;21.218;2023-03-05T00:19:18;11.00;;;5.15;;
78989;SDS011;68390;52.130;21.218;2023-03-05T00:21:44;12.00;;;4.22;;
78989;SDS011;68390;52.130;21.218;2023-03-05T00:24:11;10.38;;;4.75;;
78989;SDS011;68390;52.130;21.218;2023-03-05T00:26:40;9.02;;;4.68;;
78989;SDS011;68390;52.130;21.218;2023-03-05T00:29:06;10.27;;;4.88;;
78989;SDS011;68390;52.130;21.218;2023-03-05T00:31:33;13.23;;;5.47;;
78989;SDS011;68390;52.130;21.218;2023-03-05T00:34:02;14.07;;;6.05;;
78989;SDS011;68390;52.130;21.218;2023-03-05T00:36:39;11.52;;;5.45;;
78989;SDS011;68390;52.130;21.218;2023-03-05T00:39:06;14.00;;;5.95;;
78989;SDS011;68390;52.130;21.218;2023-03-05T00:41:31;13.50;;;6.05;;
78989;SDS011;68390;52.130;21.218;2023-03-05T00:43:57;17.77;;;5.88;;
78989;SDS011;68390;52.130;21.218;2023-03-05T00:46:23;12.45;;;5.25;;
78989;SDS011;68390;52.130;21.218;2023-03-05T00:48:51;15.25;;;5.95;;
78989;SDS011;68390;52.130;21.218;2023-03-05T00:51:17;15.63;;;5.38;;
78989;SDS011;68390;52.130;21.218;2023-03-05T00:53:42;13.23;;;4.95;;
78989;SDS011;68390;52.130;21.218;2023-03-05T00:56:08;13.20;;;5.28;;
78989;SDS011;68390;52.130;21.218;2023-03-05T00:58:33;11.95;;;5.32;;
78989;SDS011;68390;52.130;21.218;2023-03-05T01:00:59;10.68;;;4.70;;
78989;SDS011;68390;52.130;21.218;2023-03-05T01:03:26;11.32;;;4.50;;
78989;SDS011;68390;52.130;21.218;2023-03-05T01:05:53;9.15;;;4.60;;
78989;SDS011;68390;52.130;21.218;2023-03-05T01:08:18;8.70;;;4.28;;
78989;SDS011;68390;52.130;21.218;2023-03-05T01:10:44;11.20;;;4.68;;
78989;SDS011;68390;52.130;21.218;2023-03-05T01:13:09;10.82;;;4.75;;
78989;SDS011;68390;52.130;21.218;2023-03-05T01:15:35;10.32;;;4.30;;
78989;SDS011;68390;52.130;21.218;2023-03-05T01:18:00;9.88;;;4.25;;
78989;SDS011;68390;52.130;21.218;2023-03-05T01:20:26;9.63;;;4.55;;
78989;SDS011;68390;52.130;21.218;2023-03-05T01:22:51;9.88;;;3.90;;
78989;SDS011;68390;52.130;21.218;2023-03-05T01:25:18;10.45;;;4.47;;
78989;SDS011;68390;52.130;21.218;2023-03-05T01:27:44;10.57;;;4.47;;
78989;SDS011;68390;52.130;21.218;2023-03-05T01:30:11;9.23;;;3.90;;
78989;SDS011;68390;52.130;21.218;2023-03-05T01:32:37;10.35;;;4.85;;
78989;SDS011;68390;52.130;21.218;2023-03-05T01:35:03;12.43;;;5.00;;
78989;SDS011;68390;52.130;21.218;2023-03-05T01:37:30;13.25;;;4.57;;
78989;SDS011;68390;52.130;21.218;2023-03-05T01:39:55;12.48;;;4.57;;
78989;SDS011;68390;52.130;21.218;2023-03-05T01:42:21;11.30;;;4.95;;
78989;SDS011;68390;52.130;21.218;2023-03-05T01:45:00;10.15;;;4.45;;
78989;SDS011;68390;52.130;21.218;2023-03-05T01:47:26;8.13;;;3.67;;
78989;SDS011;68390;52.130;21.218;2023-03-05T01:49:52;11.98;;;4.72;;
78989;SDS011;68390;52.130;21.218;2023-03-05T01:52:19;15.93;;;4.75;;
78989;SDS011;68390;52.130;21.218;2023-03-05T01:54:48;10.48;;;4.82;;
78989;SDS011;68390;52.130;21.218;2023-03-05T01:57:20;10.48;;;5.07;;
78989;SDS011;68390;52.130;21.218;2023-03-05T01:59:47;11.75;;;5.53;;
78989;SDS011;68390;52.130;21.218;2023-03-05T02:02:16;11.27;;;5.32;;
78989;SDS011;68390;52.130;21.218;2023-03-05T02:04:44;14.77;;;5.55;;
78989;SDS011;68390;52.130;21.218;2023-03-05T02:07:14;12.13;;;5.10;;
78989;SDS011;68390;52.130;21.218;2023-03-05T02:09:41;10.77;;;5.43;;
78989;SDS011;68390;52.130;21.218;2023-03-05T02:12:07;14.32;;;5.25;;
78989;SDS011;68390;52.130;21.218;2023-03-05T02:14:34;14.75;;;4.97;;
78989;SDS011;68390;52.130;21.218;2023-03-05T02:17:00;11.23;;;4.47;;
78989;SDS011;68390;52.130;21.218;2023-03-05T02:19:26;10.38;;;5.03;;
78989;SDS011;68390;52.130;21.218;2023-03-05T02:21:52;15.73;;;5.38;;
78989;SDS011;68390;52.130;21.218;2023-03-05T02:24:18;10.88;;;5.38;;
78989;SDS011;68390;52.130;21.218;2023-03-05T02:26:58;14.05;;;5.53;;
78989;SDS011;68390;52.130;21.218;2023-03-05T02:29:24;12.75;;;5.53;;
78989;SDS011;68390;52.130;21.218;2023-03-05T02:31:53;13.48;;;5.72;;
78989;SDS011;68390;52.130;21.218;2023-03-05T02:34:19;15.38;;;5.75;;
78989;SDS011;68390;52.130;21.218;2023-03-05T02:36:45;17.08;;;5.60;;
78989;SDS011;68390;52.130;21.218;2023-03-05T02:39:10;12.70;;;5.63;;
78989;SDS011;68390;52.130;21.218;2023-03-05T02:41:36;11.77;;;5.13;;
78989;SDS011;68390;52.130;21.218;2023-03-05T02:44:01;12.27;;;5.43;;
78989;SDS011;68390;52.130;21.218;2023-03-05T02:46:27;12.90;;;5.25;;
78989;SDS011;68390;52.130;21.218;2023-03-05T02:48:52;13.02;;;5.65;;
78989;SDS011;68390;52.130;21.218;2023-03-05T02:51:18;13.40;;;5.25;;
78989;SDS011;68390;52.130;21.218;2023-03-05T02:53:43;12.77;;;4.60;;
78989;SDS011;68390;52.130;21.218;2023-03-05T02:56:09;14.77;;;6.05;;
78989;SDS011;68390;52.130;21.218;2023-03-05T02:58:35;12.48;;;5.10;;
78989;SDS011;68390;52.130;21.218;2023-03-05T03:01:00;20.25;;;6.20;;
78989;SDS011;68390;52.130;21.218;2023-03-05T03:03:25;8.32;;;4.55;;
78989;SDS011;68390;52.130;21.218;2023-03-05T03:05:51;14.90;;;5.50;;
78989;SDS011;68390;52.130;21.218;2023-03-05T03:08:16;15.65;;;5.72;;
78989;SDS011;68390;52.130;21.218;2023-03-05T03:10:42;14.38;;;5.55;;
78989;SDS011;68390;52.130;21.218;2023-03-05T03:13:07;16.48;;;5.75;;
78989;SDS011;68390;52.130;21.218;2023-03-05T03:15:33;14.90;;;6.28;;
78989;SDS011;68390;52.130;21.218;2023-03-05T03:17:58;17.63;;;6.03;;
78989;SDS011;68390;52.130;21.218;2023-03-05T03:20:24;12.20;;;5.20;;
78989;SDS011;68390;52.130;21.218;2023-03-05T03:22:50;14.88;;;6.25;;
78989;SDS011;68390;52.130;21.218;2023-03-05T03:25:17;15.00;;;5.75;;
78989;SDS011;68390;52.130;21.218;2023-03-05T03:27:44;18.25;;;6.50;;
78989;SDS011;68390;52.130;21.218;2023-03-05T03:30:10;14.80;;;6.25;;
78989;SDS011;68390;52.130;21.218;2023-03-05T03:32:36;15.25;;;6.18;;
78989;SDS011;68390;52.130;21.218;2023-03-05T03:35:02;15.95;;;6.13;;
78989;SDS011;68390;52.130;21.218;2023-03-05T03:37:28;13.68;;;5.45;;
78989;SDS011;68390;52.130;21.218;2023-03-05T03:39:54;14.30;;;5.50;;
78989;SDS011;68390;52.130;21.218;2023-03-05T03:42:20;14.55;;;5.28;;
78989;SDS011;68390;52.130;21.218;2023-03-05T03:44:46;11.77;;;5.35;;
78989;SDS011;68390;52.130;21.218;2023-03-05T03:47:12;12.77;;;5.30;;
78989;SDS011;68390;52.130;21.218;2023-03-05T03:49:37;14.20;;;5.38;;
78989;SDS011;68390;52.130;21.218;2023-03-05T03:52:03;16.38;;;5.70;;
78989;SDS011;68390;52.130;21.218;2023-03-05T03:54:29;16.13;;;5.82;;
78989;SDS011;68390;52.130;21.218;2023-03-05T03:56:54;12.85;;;5.78;;
78989;SDS011;68390;52.130;21.218;2023-03-05T03:59:20;17.38;;;6.78;;
78989;SDS011;68390;52.130;21.218;2023-03-05T04:01:46;18.73;;;6.03;;
78989;SDS011;68390;52.130;21.218;2023-03-05T04:04:12;12.77;;;5.45;;
78989;SDS011;68390;52.130;21.218;2023-03-05T04:06:38;13.23;;;5.60;;
78989;SDS011;68390;52.130;21.218;2023-03-05T04:09:04;18.30;;;7.55;;
78989;SDS011;68390;52.130;21.218;2023-03-05T04:11:30;19.05;;;6.30;;
78989;SDS011;68390;52.130;21.218;2023-03-05T04:13:55;15.65;;;6.22;;
78989;SDS011;68390;52.130;21.218;2023-03-05T04:16:21;13.80;;;5.13;;
78989;SDS011;68390;52.130;21.218;2023-03-05T04:18:47;18.73;;;6.18;;
78989;SDS011;68390;52.130;21.218;2023-03-05T04:21:12;13.27;;;4.82;;
78989;SDS011;68390;52.130;21.218;2023-03-05T04:23:38;16.20;;;5.93;;
78989;SDS011;68390;52.130;21.218;2023-03-05T04:26:04;15.30;;;6.50;;
78989;SDS011;68390;52.130;21.218;2023-03-05T04:28:30;17.20;;;5.80;;
78989;SDS011;68390;52.130;21.218;2023-03-05T04:30:56;12.38;;;5.57;;
78989;SDS011;68390;52.130;21.218;2023-03-05T04:33:22;14.13;;;6.00;;
78989;SDS011;68390;52.130;21.218;2023-03-05T04:35:47;14.07;;;5.20;;
78989;SDS011;68390;52.130;21.218;2023-03-05T04:38:13;13.75;;;5.50;;
78989;SDS011;68390;52.130;21.218;2023-03-05T04:40:38;17.38;;;6.95;;
78989;SDS011;68390;52.130;21.218;2023-03-05T04:43:04;14.18;;;6.07;;
78989;SDS011;68390;52.130;21.218;2023-03-05T04:45:30;13.00;;;4.55;;
78989;SDS011;68390;52.130;21.218;2023-03-05T04:47:56;14.45;;;5.68;;
78989;SDS011;68390;52.130;21.218;2023-03-05T04:50:22;14.60;;;5.78;;
78989;SDS011;68390;52.130;21.218;2023-03-05T04:52:47;10.18;;;5.00;;
78989;SDS011;68390;52.130;21.218;2023-03-05T04:55:14;20.50;;;6.40;;
78989;SDS011;68390;52.130;21.218;2023-03-05T04:57:40;12.75;;;5.60;;
78989;SDS011;68390;52.130;21.218;2023-03-05T05:00:07;17.05;;;6.63;;
78989;SDS011;68390;52.130;21.218;2023-03-05T05:02:38;16.45;;;5.45;;
78989;SDS011;68390;52.130;21.218;2023-03-05T05:05:05;14.25;;;6.82;;
78989;SDS011;68390;52.130;21.218;2023-03-05T05:07:30;15.57;;;6.45;;
78989;SDS011;68390;52.130;21.218;2023-03-05T05:09:56;11.45;;;5.35;;
78989;SDS011;68390;52.130;21.218;2023-03-05T05:12:22;19.17;;;6.20;;
78989;SDS011;68390;52.130;21.218;2023-03-05T05:14:47;13.88;;;6.30;;
78989;SDS011;68390;52.130;21.218;2023-03-05T05:17:13;15.40;;;6.22;;
78989;SDS011;68390;52.130;21.218;2023-03-05T05:19:39;12.52;;;4.93;;
78989;SDS011;68390;52.130;21.218;2023-03-05T05:22:04;20.38;;;7.53;;
78989;SDS011;68390;52.130;21.218;2023-03-05T05:24:30;15.80;;;5.97;;
78989;SDS011;68390;52.130;21.218;2023-03-05T05:26:55;15.38;;;5.75;;
78989;SDS011;68390;52.130;21.218;2023-03-05T05:29:21;16.83;;;6.55;;
78989;SDS011;68390;52.130;21.218;2023-03-05T05:31:47;15.50;;;6.15;;
78989;SDS011;68390;52.130;21.218;2023-03-05T05:34:12;16.80;;;5.82;;
78989;SDS011;68390;52.130;21.218;2023-03-05T05:36:38;17.27;;;6.13;;
78989;SDS011;68390;52.130;21.218;2023-03-05T05:39:03;13.57;;;5.25;;
78989;SDS011;68390;52.130;21.218;2023-03-05T05:41:29;16.42;;;5.13;;
78989;SDS011;68390;52.130;21.218;2023-03-05T05:43:55;15.82;;;5.45;;
78989;SDS011;68390;52.130;21.218;2023-03-05T05:46:20;14.65;;;4.68;;
78989;SDS011;68390;52.130;21.218;2023-03-05T05:48:47;12.57;;;4.97;;
78989;SDS011;68390;52.130;21.218;2023-03-05T05:51:14;12.82;;;5.07;;
78989;SDS011;68390;52.130;21.218;2023-03-05T05:53:41;13.27;;;5.20;;
78989;SDS011;68390;52.130;21.218;2023-03-05T05:56:08;16.58;;;5.25;;
78989;SDS011;68390;52.130;21.218;2023-03-05T05:58:35;14.00;;;5.20;;
78989;SDS011;68390;52.130;21.218;2023-03-05T06:01:01;11.88;;;3.90;;
78989;SDS011;68390;52.130;21.218;2023-03-05T06:03:27;11.25;;;4.55;;
78989;SDS011;68390;52.130;21.218;2023-03-05T06:05:53;12.27;;;4.03;;
78989;SDS011;68390;52.130;21.218;2023-03-05T06:08:18;8.48;;;4.03;;
78989;SDS011;68390;52.130;21.218;2023-03-05T06:10:44;10.23;;;4.85;;
78989;SDS011;68390;52.130;21.218;2023-03-05T06:13:09;11.88;;;4.53;;
78989;SDS011;68390;52.130;21.218;2023-03-05T06:15:35;11.00;;;4.45;;
78989;SDS011;68390;52.130;21.218;2023-03-05T06:18:00;11.93;;;4.70;;
78989;SDS011;68390;52.130;21.218;2023-03-05T06:20:26;14.25;;;5.50;;
78989;SDS011;68390;52.130;21.218;2023-03-05T06:22:52;15.38;;;5.55;;
78989;SDS011;68390;52.130;21.218;2023-03-05T06:25:18;13.32;;;5.63;;
78989;SDS011;68390;52.130;21.218;2023-03-05T06:27:43;8.93;;;4.53;;
78989;SDS011;68390;52.130;21.218;2023-03-05T06:30:09;8.13;;;4.00;;
78989;SDS011;68390;52.130;21.218;2023-03-05T06:32:35;9.18;;;4.18;;
78989;SDS011;68390;52.130;21.218;2023-03-05T06:35:01;9.15;;;4.10;;
78989;SDS011;68390;52.130;21.218;2023-03-05T06:37:26;12.43;;;4.18;;
78989;SDS011;68390;52.130;21.218;2023-03-05T06:39:52;11.40;;;4.15;;
78989;SDS011;68390;52.130;21.218;2023-03-05T06:42:17;9.65;;;3.95;;
78989;SDS011;68390;52.130;21.218;2023-03-05T06:44:43;10.05;;;4.20;;
78989;SDS011;68390;52.130;21.218;2023-03-05T06:47:09;8.40;;;3.47;;
78989;SDS011;68390;52.130;21.218;2023-03-05T06:49:35;9.40;;;3.80;;
78989;SDS011;68390;52.130;21.218;2023-03-05T06:52:04;8.60;;;3.97;;
78989;SDS011;68390;52.130;21.218;2023-03-05T06:54:31;8.73;;;4.57;;
78989;SDS011;68390;52.130;21.218;2023-03-05T06:56:56;6.25;;;3.67;;
78989;SDS011;68390;52.130;21.218;2023-03-05T06:59:22;10.55;;;4.07;;
78989;SDS011;68390;52.130;21.218;2023-03-05T07:01:47;10.60;;;4.22;;
78989;SDS011;68390;52.130;21.218;2023-03-05T07:04:13;9.52;;;4.03;;
78989;SDS011;68390;52.130;21.218;2023-03-05T07:06:40;10.68;;;4.85;;
78989;SDS011;68390;52.130;21.218;2023-03-05T07:09:12;9.77;;;4.82;;
78989;SDS011;68390;52.130;21.218;2023-03-05T07:11:39;9.68;;;4.43;;
78989;SDS011;68390;52.130;21.218;2023-03-05T07:14:05;7.65;;;3.58;;
78989;SDS011;68390;52.130;21.218;2023-03-05T07:16:31;8.15;;;3.88;;
78989;SDS011;68390;52.130;21.218;2023-03-05T07:18:59;8.52;;;4.03;;
78989;SDS011;68390;52.130;21.218;2023-03-05T07:21:28;7.75;;;3.80;;
78989;SDS011;68390;52.130;21.218;2023-03-05T07:23:55;9.05;;;3.83;;
78989;SDS011;68390;52.130;21.218;2023-03-05T07:26:23;12.60;;;4.60;;
78989;SDS011;68390;52.130;21.218;2023-03-05T07:28:49;8.95;;;5.00;;
78989;SDS011;68390;52.130;21.218;2023-03-05T07:31:16;8.52;;;4.00;;
78989;SDS011;68390;52.130;21.218;2023-03-05T07:33:44;7.88;;;3.70;;
78989;SDS011;68390;52.130;21.218;2023-03-05T07:36:10;9.93;;;4.25;;
78989;SDS011;68390;52.130;21.218;2023-03-05T07:38:36;9.35;;;3.83;;
78989;SDS011;68390;52.130;21.218;2023-03-05T07:41:03;6.97;;;4.00;;
78989;SDS011;68390;52.130;21.218;2023-03-05T07:43:37;8.45;;;3.92;;
78989;SDS011;68390;52.130;21.218;2023-03-05T07:46:04;8.10;;;3.70;;
78989;SDS011;68390;52.130;21.218;2023-03-05T07:48:31;9.32;;;3.50;;
78989;SDS011;68390;52.130;21.218;2023-03-05T07:51:04;7.75;;;3.92;;
78989;SDS011;68390;52.130;21.218;2023-03-05T07:53:31;8.23;;;4.15;;
78989;SDS011;68390;52.130;21.218;2023-03-05T07:55:57;9.40;;;3.40;;
78989;SDS011;68390;52.130;21.218;2023-03-05T07:58:22;9.90;;;4.40;;
78989;SDS011;68390;52.130;21.218;2023-03-05T08:00:48;8.07;;;4.28;;
78989;SDS011;68390;52.130;21.218;2023-03-05T08:03:13;9.07;;;4.03;;
78989;SDS011;68390;52.130;21.218;2023-03-05T08:05:39;9.50;;;4.50;;
78989;SDS011;68390;52.130;21.218;2023-03-05T08:08:05;10.35;;;4.57;;
78989;SDS011;68390;52.130;21.218;2023-03-05T08:10:32;9.95;;;4.10;;
78989;SDS011;68390;52.130;21.218;2023-03-05T08:12:57;9.75;;;4.40;;
78989;SDS011;68390;52.130;21.218;2023-03-05T08:15:23;5.88;;;3.47;;
78989;SDS011;68390;52.130;21.218;2023-03-05T08:17:48;6.60;;;3.50;;
78989;SDS011;68390;52.130;21.218;2023-03-05T08:20:14;7.28;;;3.38;;
78989;SDS011;68390;52.130;21.218;2023-03-05T08:22:39;8.07;;;3.63;;
78989;SDS011;68390;52.130;21.218;2023-03-05T08:25:05;5.25;;;2.88;;
78989;SDS011;68390;52.130;21.218;2023-03-05T08:27:32;8.02;;;3.60;;
78989;SDS011;68390;52.130;21.218;2023-03-05T08:29:57;6.90;;;3.50;;
78989;SDS011;68390;52.130;21.218;2023-03-05T08:32:24;30.55;;;8.93;;
78989;SDS011;68390;52.130;21.218;2023-03-05T08:34:50;9.48;;;4.07;;
78989;SDS011;68390;52.130;21.218;2023-03-05T08:37:16;7.57;;;3.35;;
78989;SDS011;68390;52.130;21.218;2023-03-05T08:39:41;7.82;;;3.53;;
78989;SDS011;68390;52.130;21.218;2023-03-05T08:42:07;9.15;;;4.70;;
78989;SDS011;68390;52.130;21.218;2023-03-05T08:44:32;8.95;;;4.40;;
78989;SDS011;68390;52.130;21.218;2023-03-05T08:46:57;6.00;;;3.58;;
78989;SDS011;68390;52.130;21.218;2023-03-05T08:49:23;12.55;;;5.28;;
78989;SDS011;68390;52.130;21.218;2023-03-05T08:51:49;8.57;;;3.65;;
78989;SDS011;68390;52.130;21.218;2023-03-05T08:54:14;9.98;;;3.92;;
78989;SDS011;68390;52.130;21.218;2023-03-05T08:56:40;7.32;;;3.50;;
78989;SDS011;68390;52.130;21.218;2023-03-05T08:59:05;9.30;;;4.07;;
78989;SDS011;68390;52.130;21.218;2023-03-05T09:01:31;9.88;;;4.80;;
78989;SDS011;68390;52.130;21.218;2023-03-05T09:03:57;7.15;;;3.55;;
78989;SDS011;68390;52.130;21.218;2023-03-05T09:06:23;10.32;;;3.53;;
78989;SDS011;68390;52.130;21.218;2023-03-05T09:08:50;9.70;;;4.60;;
78989;SDS011;68390;52.130;21.218;2023-03-05T09:11:15;7.10;;;3.83;;
78989;SDS011;68390;52.130;21.218;2023-03-05T09:13:41;10.75;;;4.50;;
78989;SDS011;68390;52.130;21.218;2023-03-05T09:16:07;6.95;;;3.88;;
78989;SDS011;68390;52.130;21.218;2023-03-05T09:18:35;7.80;;;3.72;;
78989;SDS011;68390;52.130;21.218;2023-03-05T09:21:05;11.88;;;5.00;;
78989;SDS011;68390;52.130;21.218;2023-03-05T09:23:31;9.10;;;4.30;;
78989;SDS011;68390;52.130;21.218;2023-03-05T09:25:57;9.63;;;3.83;;
78989;SDS011;68390;52.130;21.218;2023-03-05T09:28:22;10.68;;;4.38;;
78989;SDS011;68390;52.130;21.218;2023-03-05T09:30:48;9.40;;;4.70;;
78989;SDS011;68390;52.130;21.218;2023-03-05T09:33:13;9.10;;;3.92;;
78989;SDS011;68390;52.130;21.218;2023-03-05T09:35:39;7.95;;;3.83;;
78989;SDS011;68390;52.130;21.218;2023-03-05T09:38:04;9.07;;;4.15;;
78989;SDS011;68390;52.130;21.218;2023-03-05T09:40:32;11.65;;;4.10;;
78989;SDS011;68390;52.130;21.218;2023-03-05T09:51:20;10.57;;;4.25;;
78989;SDS011;68390;52.130;21.218;2023-03-05T09:56:28;9.35;;;4.30;;
78989;SDS011;68390;52.130;21.218;2023-03-05T10:01:49;7.82;;;3.80;;
78989;SDS011;68390;52.130;21.218;2023-03-05T10:04:21;9.27;;;4.45;;
78989;SDS011;68390;52.130;21.218;2023-03-05T10:07:03;11.88;;;4.85;;
78989;SDS011;68390;52.130;21.218;2023-03-05T10:10:00;11.40;;;4.95;;
78989;SDS011;68390;52.130;21.218;2023-03-05T10:12:26;10.30;;;5.00;;
78989;SDS011;68390;52.130;21.218;2023-03-05T10:15:20;12.23;;;5.43;;
78989;SDS011;68390;52.130;21.218;2023-03-05T10:21:11;8.80;;;4.90;;
78989;SDS011;68390;52.130;21.218;2023-03-05T10:26:26;10.68;;;5.45;;
78989;SDS011;68390;52.130;21.218;2023-03-05T10:35:02;10.57;;;5.80;;
78989;SDS011;68390;52.130;21.218;2023-03-05T10:40:31;10.70;;;5.13;;
78989;SDS011;68390;52.130;21.218;2023-03-05T10:43:22;13.13;;;5.53;;
78989;SDS011;68390;52.130;21.218;2023-03-05T10:45:55;9.93;;;5.13;;
78989;SDS011;68390;52.130;21.218;2023-03-05T10:53:58;10.90;;;5.32;;
78989;SDS011;68390;52.130;21.218;2023-03-05T10:56:28;11.15;;;5.53;;
78989;SDS011;68390;52.130;21.218;2023-03-05T10:58:55;12.00;;;5.47;;
78989;SDS011;68390;52.130;21.218;2023-03-05T11:01:26;11.88;;;5.70;;
78989;SDS011;68390;52.130;21.218;2023-03-05T11:04:00;12.48;;;5.53;;
78989;SDS011;68390;52.130;21.218;2023-03-05T11:06:37;9.10;;;5.10;;
78989;SDS011;68390;52.130;21.218;2023-03-05T11:09:20;12.70;;;6.82;;
78989;SDS011;68390;52.130;21.218;2023-03-05T11:14:32;21.15;;;10.23;;
78989;SDS011;68390;52.130;21.218;2023-03-05T11:17:00;10.85;;;6.03;;
78989;SDS011;68390;52.130;21.218;2023-03-05T11:19:29;9.25;;;5.72;;
78989;SDS011;68390;52.130;21.218;2023-03-05T11:22:20;11.82;;;6.03;;
78989;SDS011;68390;52.130;21.218;2023-03-05T11:25:04;10.77;;;4.68;;
78989;SDS011;68390;52.130;21.218;2023-03-05T11:27:32;9.88;;;5.05;;
78989;SDS011;68390;52.130;21.218;2023-03-05T11:30:00;9.98;;;5.38;;
78989;SDS011;68390;52.130;21.218;2023-03-05T11:32:27;12.45;;;5.78;;
78989;SDS011;68390;52.130;21.218;2023-03-05T11:34:53;11.48;;;5.35;;
78989;SDS011;68390;52.130;21.218;2023-03-05T11:37:30;8.88;;;4.90;;
78989;SDS011;68390;52.130;21.218;2023-03-05T11:42:40;10.73;;;5.03;;
78989;SDS011;68390;52.130;21.218;2023-03-05T11:45:09;9.77;;;5.05;;
78989;SDS011;68390;52.130;21.218;2023-03-05T11:50:32;14.30;;;6.30;;
78989;SDS011;68390;52.130;21.218;2023-03-05T11:53:01;15.23;;;6.95;;
78989;SDS011;68390;52.130;21.218;2023-03-05T11:58:45;15.07;;;6.80;;
78989;SDS011;68390;52.130;21.218;2023-03-05T12:01:24;12.32;;;7.45;;
78989;SDS011;68390;52.130;21.218;2023-03-05T12:03:53;17.23;;;8.98;;
78989;SDS011;68390;52.130;21.218;2023-03-05T12:11:51;16.42;;;8.77;;
78989;SDS011;68390;52.130;21.218;2023-03-05T12:19:50;16.70;;;7.40;;
78989;SDS011;68390;52.130;21.218;2023-03-05T12:22:23;15.27;;;7.25;;
78989;SDS011;68390;52.130;21.218;2023-03-05T12:28:08;16.60;;;8.95;;
78989;SDS011;68390;52.130;21.218;2023-03-05T12:30:52;15.32;;;9.10;;
78989;SDS011;68390;52.130;21.218;2023-03-05T12:33:31;13.60;;;8.32;;
78989;SDS011;68390;52.130;21.218;2023-03-05T12:39:01;16.60;;;7.57;;
78989;SDS011;68390;52.130;21.218;2023-03-05T12:53:15;14.07;;;6.88;;
78989;SDS011;68390;52.130;21.218;2023-03-05T13:03:56;14.80;;;6.00;;
78989;SDS011;68390;52.130;21.218;2023-03-05T13:06:26;10.40;;;5.70;;
78989;SDS011;68390;52.130;21.218;2023-03-05T13:08:57;21.15;;;10.68;;
78989;SDS011;68390;52.130;21.218;2023-03-05T13:11:38;39.63;;;19.65;;
78989;SDS011;68390;52.130;21.218;2023-03-05T13:14:20;23.77;;;11.57;;
78989;SDS011;68390;52.130;21.218;2023-03-05T13:17:01;273.55;;;99.43;;
78989;SDS011;68390;52.130;21.218;2023-03-05T13:19:47;153.48;;;62.90;;
78989;SDS011;68390;52.130;21.218;2023-03-05T13:22:12;286.45;;;122.70;;
78989;SDS011;68390;52.130;21.218;2023-03-05T13:24:38;137.93;;;64.93;;
78989;SDS011;68390;52.130;21.218;2023-03-05T13:27:17;25.20;;;11.65;;
78989;SDS011;68390;52.130;21.218;2023-03-05T13:29:50;13.25;;;7.47;;
78989;SDS011;68390;52.130;21.218;2023-03-05T13:32:22;24.35;;;13.18;;
78989;SDS011;68390;52.130;21.218;2023-03-05T13:34:52;18.42;;;9.70;;
78989;SDS011;68390;52.130;21.218;2023-03-05T13:37:21;11.73;;;6.68;;
78989;SDS011;68390;52.130;21.218;2023-03-05T13:39:51;14.77;;;10.02;;
78989;SDS011;68390;52.130;21.218;2023-03-05T13:42:28;13.68;;;8.57;;
78989;SDS011;68390;52.130;21.218;2023-03-05T13:47:55;13.75;;;7.45;;
78989;SDS011;68390;52.130;21.218;2023-03-05T13:52:51;11.52;;;6.68;;
78989;SDS011;68390;52.130;21.218;2023-03-05T13:55:17;14.07;;;7.43;;
78989;SDS011;68390;52.130;21.218;2023-03-05T13:57:43;13.23;;;7.53;;
78989;SDS011;68390;52.130;21.218;2023-03-05T14:02:55;11.10;;;6.20;;
78989;SDS011;68390;52.130;21.218;2023-03-05T14:05:23;10.25;;;6.32;;
78989;SDS011;68390;52.130;21.218;2023-03-05T14:07:49;11.95;;;7.38;;
78989;SDS011;68390;52.130;21.218;2023-03-05T14:10:26;11.15;;;6.65;;
78989;SDS011;68390;52.130;21.218;2023-03-05T14:12:55;8.25;;;5.57;;
78989;SDS011;68390;52.130;21.218;2023-03-05T14:15:25;11.07;;;5.28;;
78989;SDS011;68390;52.130;21.218;2023-03-05T14:20:37;10.82;;;5.53;;
78989;SDS011;68390;52.130;21.218;2023-03-05T14:23:24;10.73;;;5.57;;
78989;SDS011;68390;52.130;21.218;2023-03-05T14:25:49;9.90;;;5.70;;
78989;SDS011;68390;52.130;21.218;2023-03-05T14:30:59;11.55;;;5.95;;
78989;SDS011;68390;52.130;21.218;2023-03-05T14:33:30;13.00;;;5.90;;
78989;SDS011;68390;52.130;21.218;2023-03-05T14:35:57;11.73;;;6.15;;
78989;SDS011;68390;52.130;21.218;2023-03-05T14:38:26;12.60;;;7.38;;
78989;SDS011;68390;52.130;21.218;2023-03-05T14:40:55;10.52;;;5.97;;
78989;SDS011;68390;52.130;21.218;2023-03-05T14:43:20;10.32;;;6.10;;
78989;SDS011;68390;52.130;21.218;2023-03-05T14:45:46;12.98;;;5.82;;
78989;SDS011;68390;52.130;21.218;2023-03-05T14:48:15;9.35;;;5.30;;
78989;SDS011;68390;52.130;21.218;2023-03-05T14:50:44;9.43;;;5.18;;
78989;SDS011;68390;52.130;21.218;2023-03-05T14:53:16;11.20;;;5.15;;
78989;SDS011;68390;52.130;21.218;2023-03-05T14:55:44;10.23;;;5.22;;
78989;SDS011;68390;52.130;21.218;2023-03-05T15:00:45;13.98;;;6.57;;
78989;SDS011;68390;52.130;21.218;2023-03-05T15:03:12;10.32;;;5.20;;
78989;SDS011;68390;52.130;21.218;2023-03-05T15:05:40;12.15;;;5.30;;
78989;SDS011;68390;52.130;21.218;2023-03-05T15:08:09;9.45;;;5.03;;
78989;SDS011;68390;52.130;21.218;2023-03-05T15:10:39;7.75;;;4.35;;
78989;SDS011;68390;52.130;21.218;2023-03-05T15:13:04;8.68;;;4.85;;
78989;SDS011;68390;52.130;21.218;2023-03-05T15:15:30;12.25;;;5.00;;
78989;SDS011;68390;52.130;21.218;2023-03-05T15:17:56;11.57;;;5.22;;
78989;SDS011;68390;52.130;21.218;2023-03-05T15:20:25;9.15;;;4.43;;
78989;SDS011;68390;52.130;21.218;2023-03-05T15:22:52;12.77;;;6.28;;
78989;SDS011;68390;52.130;21.218;2023-03-05T15:25:19;85.35;;;25.25;;
78989;SDS011;68390;52.130;21.218;2023-03-05T15:27:46;260.90;;;92.03;;
78989;SDS011;68390;52.130;21.218;2023-03-05T15:30:26;157.30;;;62.47;;
78989;SDS011;68390;52.130;21.218;2023-03-05T15:32:52;101.85;;;46.33;;
78989;SDS011;68390;52.130;21.218;2023-03-05T15:35:20;40.25;;;22.95;;
78989;SDS011;68390;52.130;21.218;2023-03-05T15:37:46;28.15;;;18.92;;
78989;SDS011;68390;52.130;21.218;2023-03-05T15:40:11;22.20;;;12.98;;
78989;SDS011;68390;52.130;21.218;2023-03-05T15:42:37;18.60;;;13.10;;
78989;SDS011;68390;52.130;21.218;2023-03-05T15:45:03;14.95;;;9.75;;
78989;SDS011;68390;52.130;21.218;2023-03-05T15:47:29;12.38;;;6.93;;
78989;SDS011;68390;52.130;21.218;2023-03-05T15:49:54;20.02;;;12.82;;
78989;SDS011;68390;52.130;21.218;2023-03-05T15:52:20;14.05;;;7.38;;
78989;SDS011;68390;52.130;21.218;2023-03-05T15:54:45;20.98;;;14.65;;
78989;SDS011;68390;52.130;21.218;2023-03-05T15:57:11;14.75;;;9.25;;
78989;SDS011;68390;52.130;21.218;2023-03-05T15:59:36;15.20;;;8.98;;
78989;SDS011;68390;52.130;21.218;2023-03-05T16:02:02;13.35;;;8.48;;
78989;SDS011;68390;52.130;21.218;2023-03-05T16:04:28;13.82;;;7.22;;
78989;SDS011;68390;52.130;21.218;2023-03-05T16:06:53;20.20;;;10.18;;